< < Back
Terminal Aerodrome Forecast


Current Version              Previous Versions:   1  2  3  4  5  6  7  8  9  

Terminal Aerodrome Forecast

681
FTUS42 KFFC 242325
TAFCSG
TAF
KCSG 242325Z 2500/2524 27009KT P6SM BKN035
      TEMPO 2500/2502 BKN025
     FM251000 29006KT P6SM SCT100
     FM251400 30007KT P6SM FEW150=



Latest METAR

362
SAUS70 KWBC 260300
MTRCSG
METAR KCSG 260251Z AUTO 00000KT 10SM CLR 06/03 A3026 RMK AO2 SLP247
T00560033 50006


USA.gov is the U.S. government's official web portal to all federal, state and local government web resources and services.